Friendship, Wisconsin
Current Conditions -  °F | °C
As of 9:58 PM on Wednesday 17 Dec 2014 (Local Time) from KVOK Reporting Station
Overcast Overcast  
Wind Chill: 13°   Ceiling: 2100
Heat Index: 19°   Visibility: 10mi
Dew Point: 18°   Wind: 5mph
Humidity: 93%   Direction: 290°WNW
Pressure: 30.29"   Gusts: NA
Location:  43.97°N, 89.82°W
Report Text: KVOK 180358Z 29004KT 10SM OVC021 M07/M08 A3029 RMK AO2A SLP276
Loading
Personal Weather Stations






























Interactive Weather Map New forecast layout! Learn more

10-Day Weather Forecast

Advertisements
Track Severe Weather on mobile